sensor_id;sensor_type;location;lat;lon;timestamp;pressure;altitude;pressure_sealevel;temperature;humidity
11114;BME280;5610;52.154;9.198;2022-09-01T00:01:10;101368.22;;;15.97;75.30
11114;BME280;5610;52.154;9.198;2022-09-01T00:03:58;101365.38;;;15.87;75.02
11114;BME280;5610;52.154;9.198;2022-09-01T00:06:46;101371.16;;;15.94;76.94
11114;BME280;5610;52.154;9.198;2022-09-01T00:09:34;101372.13;;;15.93;77.08
11114;BME280;5610;52.154;9.198;2022-09-01T00:12:19;101370.50;;;15.90;77.22
11114;BME280;5610;52.154;9.198;2022-09-01T00:15:07;101372.16;;;15.80;78.12
11114;BME280;5610;52.154;9.198;2022-09-01T00:17:56;101364.84;;;15.70;76.73
11114;BME280;5610;52.154;9.198;2022-09-01T00:20:41;101373.25;;;15.65;76.66
11114;BME280;5610;52.154;9.198;2022-09-01T00:23:27;101369.91;;;15.61;78.84
11114;BME280;5610;52.154;9.198;2022-09-01T00:26:14;101374.63;;;15.58;78.59
11114;BME280;5610;52.154;9.198;2022-09-01T00:28:59;101374.72;;;15.56;79.27
11114;BME280;5610;52.154;9.198;2022-09-01T00:31:44;101371.28;;;15.54;79.52
11114;BME280;5610;52.154;9.198;2022-09-01T00:34:30;101377.00;;;15.62;79.85
11114;BME280;5610;52.154;9.198;2022-09-01T00:37:15;101373.75;;;15.70;80.70
11114;BME280;5610;52.154;9.198;2022-09-01T00:40:01;101382.13;;;15.78;81.10
11114;BME280;5610;52.154;9.198;2022-09-01T00:42:47;101385.72;;;15.79;82.76
11114;BME280;5610;52.154;9.198;2022-09-01T00:45:33;101379.69;;;15.75;82.92
11114;BME280;5610;52.154;9.198;2022-09-01T00:48:18;101380.47;;;15.64;83.07
11114;BME280;5610;52.154;9.198;2022-09-01T00:51:06;101374.63;;;15.58;82.26
11114;BME280;5610;52.154;9.198;2022-09-01T00:53:53;101370.75;;;15.49;82.70
11114;BME280;5610;52.154;9.198;2022-09-01T00:56:40;101379.47;;;15.40;83.46
11114;BME280;5610;52.154;9.198;2022-09-01T00:59:27;101373.66;;;15.33;82.20
11114;BME280;5610;52.154;9.198;2022-09-01T01:02:14;101378.69;;;15.25;83.96
11114;BME280;5610;52.154;9.198;2022-09-01T01:04:59;101377.41;;;15.18;84.60
11114;BME280;5610;52.154;9.198;2022-09-01T01:07:46;101373.31;;;15.13;84.87
11114;BME280;5610;52.154;9.198;2022-09-01T01:10:36;101372.91;;;15.19;85.75
11114;BME280;5610;52.154;9.198;2022-09-01T01:13:22;101377.53;;;15.17;84.33
11114;BME280;5610;52.154;9.198;2022-09-01T01:16:10;101378.16;;;15.20;84.71
11114;BME280;5610;52.154;9.198;2022-09-01T01:18:59;101367.63;;;15.17;85.58
11114;BME280;5610;52.154;9.198;2022-09-01T01:21:45;101371.50;;;15.26;87.14
11114;BME280;5610;52.154;9.198;2022-09-01T01:24:50;101371.28;;;15.29;87.38
11114;BME280;5610;52.154;9.198;2022-09-01T01:27:36;101364.63;;;15.34;86.92
11114;BME280;5610;52.154;9.198;2022-09-01T01:30:21;101372.06;;;15.44;87.16
11114;BME280;5610;52.154;9.198;2022-09-01T01:33:06;101372.38;;;15.52;86.95
11114;BME280;5610;52.154;9.198;2022-09-01T01:35:53;101372.03;;;15.56;86.92
11114;BME280;5610;52.154;9.198;2022-09-01T01:38:43;101369.16;;;15.59;87.83
11114;BME280;5610;52.154;9.198;2022-09-01T01:41:32;101367.03;;;15.64;87.70
11114;BME280;5610;52.154;9.198;2022-09-01T01:44:21;101377.84;;;15.63;90.40
11114;BME280;5610;52.154;9.198;2022-09-01T01:47:12;101376.16;;;15.62;90.54
11114;BME280;5610;52.154;9.198;2022-09-01T01:50:00;101376.88;;;15.64;91.46
11114;BME280;5610;52.154;9.198;2022-09-01T01:52:48;101374.13;;;15.65;90.49
11114;BME280;5610;52.154;9.198;2022-09-01T01:55:33;101378.72;;;15.63;91.00
11114;BME280;5610;52.154;9.198;2022-09-01T01:58:21;101380.34;;;15.66;91.19
11114;BME280;5610;52.154;9.198;2022-09-01T02:01:07;101372.06;;;15.69;90.67
11114;BME280;5610;52.154;9.198;2022-09-01T02:03:55;101367.41;;;15.71;90.64
11114;BME280;5610;52.154;9.198;2022-09-01T02:06:42;101372.91;;;15.70;91.92
11114;BME280;5610;52.154;9.198;2022-09-01T02:09:29;101379.06;;;15.72;92.00
11114;BME280;5610;52.154;9.198;2022-09-01T02:12:14;101373.88;;;15.69;92.70
11114;BME280;5610;52.154;9.198;2022-09-01T02:15:04;101375.50;;;15.58;93.57
11114;BME280;5610;52.154;9.198;2022-09-01T02:17:50;101374.19;;;15.38;94.05
11114;BME280;5610;52.154;9.198;2022-09-01T02:20:36;101374.50;;;15.34;97.85
11114;BME280;5610;52.154;9.198;2022-09-01T02:23:22;101371.50;;;15.38;98.19
11114;BME280;5610;52.154;9.198;2022-09-01T02:26:08;101364.00;;;15.31;98.03
11114;BME280;5610;52.154;9.198;2022-09-01T02:28:53;101376.13;;;15.24;98.25
11114;BME280;5610;52.154;9.198;2022-09-01T02:31:46;101374.31;;;15.24;99.11
11114;BME280;5610;52.154;9.198;2022-09-01T02:34:32;101370.09;;;15.20;99.64
11114;BME280;5610;52.154;9.198;2022-09-01T02:37:18;101378.16;;;15.20;99.71
11114;BME280;5610;52.154;9.198;2022-09-01T02:40:09;101364.63;;;15.22;100.00
11114;BME280;5610;52.154;9.198;2022-09-01T02:42:54;101373.56;;;15.22;100.00
11114;BME280;5610;52.154;9.198;2022-09-01T02:45:39;101363.69;;;15.23;99.66
11114;BME280;5610;52.154;9.198;2022-09-01T02:48:30;101367.53;;;15.19;100.00
11114;BME280;5610;52.154;9.198;2022-09-01T02:51:21;101356.91;;;15.17;100.00
11114;BME280;5610;52.154;9.198;2022-09-01T02:54:08;101356.88;;;15.04;100.00
11114;BME280;5610;52.154;9.198;2022-09-01T02:56:54;101353.44;;;14.90;100.00
11114;BME280;5610;52.154;9.198;2022-09-01T02:59:41;101358.13;;;14.73;100.00
11114;BME280;5610;52.154;9.198;2022-09-01T03:02:26;101357.41;;;14.57;100.00
11114;BME280;5610;52.154;9.198;2022-09-01T03:05:13;101352.41;;;14.38;100.00
11114;BME280;5610;52.154;9.198;2022-09-01T03:08:01;101350.63;;;14.24;100.00
11114;BME280;5610;52.154;9.198;2022-09-01T03:10:47;101348.06;;;14.09;100.00
11114;BME280;5610;52.154;9.198;2022-09-01T03:13:32;101353.19;;;13.99;100.00
11114;BME280;5610;52.154;9.198;2022-09-01T03:16:17;101340.56;;;13.87;100.00
11114;BME280;5610;52.154;9.198;2022-09-01T03:19:04;101348.13;;;13.80;100.00
11114;BME280;5610;52.154;9.198;2022-09-01T03:21:53;101339.63;;;13.73;100.00
11114;BME280;5610;52.154;9.198;2022-09-01T03:24:43;101343.97;;;13.62;100.00
11114;BME280;5610;52.154;9.198;2022-09-01T03:27:28;101350.81;;;13.52;100.00
11114;BME280;5610;52.154;9.198;2022-09-01T03:30:14;101340.91;;;13.39;100.00
11114;BME280;5610;52.154;9.198;2022-09-01T03:33:01;101345.00;;;13.31;100.00
11114;BME280;5610;52.154;9.198;2022-09-01T03:35:47;101342.63;;;13.26;100.00
11114;BME280;5610;52.154;9.198;2022-09-01T03:38:34;101346.53;;;13.21;100.00
11114;BME280;5610;52.154;9.198;2022-09-01T03:41:23;101343.22;;;13.15;100.00
11114;BME280;5610;52.154;9.198;2022-09-01T03:44:09;101340.75;;;13.12;100.00
11114;BME280;5610;52.154;9.198;2022-09-01T03:46:56;101347.22;;;13.08;100.00
11114;BME280;5610;52.154;9.198;2022-09-01T03:49:45;101343.91;;;13.05;100.00
11114;BME280;5610;52.154;9.198;2022-09-01T03:52:32;101348.47;;;13.03;100.00
11114;BME280;5610;52.154;9.198;2022-09-01T03:55:23;101344.16;;;13.00;100.00
11114;BME280;5610;52.154;9.198;2022-09-01T03:58:10;101343.41;;;12.98;100.00
11114;BME280;5610;52.154;9.198;2022-09-01T04:00:58;101348.81;;;12.97;100.00
11114;BME280;5610;52.154;9.198;2022-09-01T04:03:45;101348.75;;;12.98;100.00
11114;BME280;5610;52.154;9.198;2022-09-01T04:06:35;101349.78;;;12.96;100.00
11114;BME280;5610;52.154;9.198;2022-09-01T04:09:21;101358.66;;;12.96;100.00
11114;BME280;5610;52.154;9.198;2022-09-01T04:12:08;101339.00;;;12.97;100.00
11114;BME280;5610;52.154;9.198;2022-09-01T04:14:56;101354.19;;;12.97;100.00
11114;BME280;5610;52.154;9.198;2022-09-01T04:17:41;101354.38;;;12.93;100.00
11114;BME280;5610;52.154;9.198;2022-09-01T04:20:46;101349.28;;;12.89;100.00
11114;BME280;5610;52.154;9.198;2022-09-01T04:23:34;101346.81;;;12.86;100.00
11114;BME280;5610;52.154;9.198;2022-09-01T04:26:24;101350.59;;;12.82;100.00
11114;BME280;5610;52.154;9.198;2022-09-01T04:29:15;101352.78;;;12.75;100.00
11114;BME280;5610;52.154;9.198;2022-09-01T04:32:04;101357.47;;;12.72;100.00
11114;BME280;5610;52.154;9.198;2022-09-01T04:34:51;101355.16;;;12.65;100.00
11114;BME280;5610;52.154;9.198;2022-09-01T04:37:36;101356.00;;;12.66;100.00
11114;BME280;5610;52.154;9.198;2022-09-01T04:40:24;101358.97;;;12.61;100.00
11114;BME280;5610;52.154;9.198;2022-09-01T04:43:10;101365.09;;;12.63;100.00
11114;BME280;5610;52.154;9.198;2022-09-01T04:45:57;101361.66;;;12.61;100.00
11114;BME280;5610;52.154;9.198;2022-09-01T04:48:43;101363.28;;;12.64;100.00
11114;BME280;5610;52.154;9.198;2022-09-01T04:51:29;101370.44;;;12.63;100.00
11114;BME280;5610;52.154;9.198;2022-09-01T04:54:14;101365.75;;;12.67;100.00
11114;BME280;5610;52.154;9.198;2022-09-01T04:57:03;101368.44;;;12.67;100.00
11114;BME280;5610;52.154;9.198;2022-09-01T04:59:54;101368.25;;;12.70;100.00
11114;BME280;5610;52.154;9.198;2022-09-01T05:02:41;101368.34;;;12.69;100.00
11114;BME280;5610;52.154;9.198;2022-09-01T05:05:36;101367.31;;;12.71;100.00
11114;BME280;5610;52.154;9.198;2022-09-01T05:08:25;101373.25;;;12.76;100.00
11114;BME280;5610;52.154;9.198;2022-09-01T05:11:15;101364.28;;;12.77;100.00
11114;BME280;5610;52.154;9.198;2022-09-01T05:14:02;101365.72;;;12.83;100.00
11114;BME280;5610;52.154;9.198;2022-09-01T05:16:48;101365.53;;;12.86;100.00
11114;BME280;5610;52.154;9.198;2022-09-01T05:19:39;101365.34;;;12.89;100.00
11114;BME280;5610;52.154;9.198;2022-09-01T05:22:26;101365.28;;;12.90;100.00
11114;BME280;5610;52.154;9.198;2022-09-01T05:25:17;101360.69;;;12.92;100.00
11114;BME280;5610;52.154;9.198;2022-09-01T05:28:02;101368.50;;;12.96;100.00
11114;BME280;5610;52.154;9.198;2022-09-01T05:30:48;101367.38;;;13.00;100.00
11114;BME280;5610;52.154;9.198;2022-09-01T05:33:38;101369.69;;;13.06;100.00
11114;BME280;5610;52.154;9.198;2022-09-01T05:36:30;101367.22;;;13.17;100.00
11114;BME280;5610;52.154;9.198;2022-09-01T05:39:17;101364.59;;;13.31;100.00
11114;BME280;5610;52.154;9.198;2022-09-01T05:42:04;101363.25;;;13.53;100.00
11114;BME280;5610;52.154;9.198;2022-09-01T05:44:51;101370.13;;;13.85;100.00
11114;BME280;5610;52.154;9.198;2022-09-01T05:47:36;101363.41;;;14.07;100.00
11114;BME280;5610;52.154;9.198;2022-09-01T05:50:22;101357.31;;;14.32;100.00
11114;BME280;5610;52.154;9.198;2022-09-01T05:53:10;101358.38;;;14.56;100.00
11114;BME280;5610;52.154;9.198;2022-09-01T05:56:04;101357.91;;;14.76;100.00
11114;BME280;5610;52.154;9.198;2022-09-01T05:58:51;101365.34;;;14.98;100.00
11114;BME280;5610;52.154;9.198;2022-09-01T06:01:38;101362.69;;;15.11;100.00
11114;BME280;5610;52.154;9.198;2022-09-01T06:04:25;101357.22;;;15.25;100.00
11114;BME280;5610;52.154;9.198;2022-09-01T06:07:13;101370.22;;;15.31;100.00
11114;BME280;5610;52.154;9.198;2022-09-01T06:10:04;101364.75;;;15.46;100.00
11114;BME280;5610;52.154;9.198;2022-09-01T06:12:49;101360.03;;;15.62;100.00
11114;BME280;5610;52.154;9.198;2022-09-01T06:15:36;101361.84;;;15.61;100.00
11114;BME280;5610;52.154;9.198;2022-09-01T06:18:22;101364.84;;;15.82;100.00
11114;BME280;5610;52.154;9.198;2022-09-01T06:21:14;101358.69;;;15.93;100.00
11114;BME280;5610;52.154;9.198;2022-09-01T06:24:00;101362.00;;;15.97;100.00
11114;BME280;5610;52.154;9.198;2022-09-01T06:26:48;101367.91;;;16.02;100.00
11114;BME280;5610;52.154;9.198;2022-09-01T06:29:34;101357.56;;;16.08;100.00
11114;BME280;5610;52.154;9.198;2022-09-01T06:32:22;101365.59;;;16.21;100.00
11114;BME280;5610;52.154;9.198;2022-09-01T06:35:09;101364.63;;;16.22;100.00
11114;BME280;5610;52.154;9.198;2022-09-01T06:37:56;101367.94;;;16.26;100.00
11114;BME280;5610;52.154;9.198;2022-09-01T06:41:10;101371.75;;;16.34;100.00
11114;BME280;5610;52.154;9.198;2022-09-01T06:43:57;101372.63;;;16.35;100.00
11114;BME280;5610;52.154;9.198;2022-09-01T06:46:44;101368.91;;;16.48;100.00
11114;BME280;5610;52.154;9.198;2022-09-01T06:49:30;101383.06;;;16.39;100.00
11114;BME280;5610;52.154;9.198;2022-09-01T06:52:18;101385.22;;;16.58;100.00
11114;BME280;5610;52.154;9.198;2022-09-01T06:55:05;101393.06;;;16.61;100.00
11114;BME280;5610;52.154;9.198;2022-09-01T06:57:52;101387.91;;;16.71;100.00
11114;BME280;5610;52.154;9.198;2022-09-01T07:00:41;101388.19;;;16.79;100.00
11114;BME280;5610;52.154;9.198;2022-09-01T07:03:28;101384.66;;;16.90;100.00
11114;BME280;5610;52.154;9.198;2022-09-01T07:06:32;101384.19;;;16.96;100.00
11114;BME280;5610;52.154;9.198;2022-09-01T07:09:33;101388.63;;;17.08;100.00
11114;BME280;5610;52.154;9.198;2022-09-01T07:12:41;101394.16;;;17.18;100.00
11114;BME280;5610;52.154;9.198;2022-09-01T07:15:29;101387.47;;;17.35;100.00
11114;BME280;5610;52.154;9.198;2022-09-01T07:18:17;101397.41;;;17.45;100.00
11114;BME280;5610;52.154;9.198;2022-09-01T07:21:05;101390.41;;;17.54;100.00
11114;BME280;5610;52.154;9.198;2022-09-01T07:23:52;101399.78;;;17.72;100.00
11114;BME280;5610;52.154;9.198;2022-09-01T07:26:39;101406.41;;;17.79;100.00
11114;BME280;5610;52.154;9.198;2022-09-01T07:29:25;101400.91;;;17.92;100.00
11114;BME280;5610;52.154;9.198;2022-09-01T07:32:11;101396.47;;;18.02;100.00
11114;BME280;5610;52.154;9.198;2022-09-01T07:35:03;101408.84;;;18.16;100.00
11114;BME280;5610;52.154;9.198;2022-09-01T07:37:52;101404.53;;;18.25;98.23
11114;BME280;5610;52.154;9.198;2022-09-01T07:40:41;101400.06;;;18.46;99.37
11114;BME280;5610;52.154;9.198;2022-09-01T07:43:58;101408.84;;;18.59;95.95
11114;BME280;5610;52.154;9.198;2022-09-01T07:47:21;101398.88;;;18.82;96.56
11114;BME280;5610;52.154;9.198;2022-09-01T07:50:08;101393.47;;;18.82;91.13
11114;BME280;5610;52.154;9.198;2022-09-01T07:52:55;101386.16;;;18.94;88.33
11114;BME280;5610;52.154;9.198;2022-09-01T07:55:41;101397.78;;;19.06;87.94
11114;BME280;5610;52.154;9.198;2022-09-01T07:58:28;101402.19;;;19.28;87.46
11114;BME280;5610;52.154;9.198;2022-09-01T08:01:22;101392.50;;;19.46;85.78
11114;BME280;5610;52.154;9.198;2022-09-01T08:04:08;101396.16;;;19.66;84.87
11114;BME280;5610;52.154;9.198;2022-09-01T08:06:55;101400.28;;;19.91;83.24
11114;BME280;5610;52.154;9.198;2022-09-01T08:09:40;101401.22;;;20.11;81.65
11114;BME280;5610;52.154;9.198;2022-09-01T08:12:26;101395.88;;;20.30;78.18
11114;BME280;5610;52.154;9.198;2022-09-01T08:15:12;101395.66;;;20.52;80.07
11114;BME280;5610;52.154;9.198;2022-09-01T08:18:01;101398.94;;;20.66;77.49
11114;BME280;5610;52.154;9.198;2022-09-01T08:20:49;101402.38;;;20.87;77.30
11114;BME280;5610;52.154;9.198;2022-09-01T08:24:02;101399.91;;;21.13;76.72
11114;BME280;5610;52.154;9.198;2022-09-01T08:26:50;101402.63;;;21.32;74.50
11114;BME280;5610;52.154;9.198;2022-09-01T08:29:35;101405.56;;;21.49;72.08
11114;BME280;5610;52.154;9.198;2022-09-01T08:32:20;101404.25;;;21.72;71.30
11114;BME280;5610;52.154;9.198;2022-09-01T08:35:07;101398.34;;;21.86;70.58
11114;BME280;5610;52.154;9.198;2022-09-01T08:37:53;101401.25;;;22.03;66.73
11114;BME280;5610;52.154;9.198;2022-09-01T08:40:42;101402.94;;;22.13;64.18
11114;BME280;5610;52.154;9.198;2022-09-01T08:43:38;101404.53;;;22.34;64.22
11114;BME280;5610;52.154;9.198;2022-09-01T08:46:32;101405.25;;;22.36;63.14
11114;BME280;5610;52.154;9.198;2022-09-01T08:49:21;101401.63;;;22.63;63.52
11114;BME280;5610;52.154;9.198;2022-09-01T08:52:29;101401.88;;;22.87;62.12
11114;BME280;5610;52.154;9.198;2022-09-01T08:55:20;101398.31;;;23.05;61.06
11114;BME280;5610;52.154;9.198;2022-09-01T08:58:11;101401.69;;;23.24;59.26
11114;BME280;5610;52.154;9.198;2022-09-01T09:01:29;101397.44;;;23.48;58.23
11114;BME280;5610;52.154;9.198;2022-09-01T09:04:27;101388.44;;;23.73;60.53
11114;BME280;5610;52.154;9.198;2022-09-01T09:07:23;101395.69;;;23.91;58.53
11114;BME280;5610;52.154;9.198;2022-09-01T09:10:17;101397.28;;;24.09;57.86
11114;BME280;5610;52.154;9.198;2022-09-01T09:13:08;101395.13;;;24.21;56.94
11114;BME280;5610;52.154;9.198;2022-09-01T09:16:00;101397.25;;;24.44;56.10
11114;BME280;5610;52.154;9.198;2022-09-01T09:18:50;101394.41;;;24.53;55.16
11114;BME280;5610;52.154;9.198;2022-09-01T09:21:39;101390.84;;;24.61;54.26
11114;BME280;5610;52.154;9.198;2022-09-01T09:24:28;101387.28;;;24.85;54.72
11114;BME280;5610;52.154;9.198;2022-09-01T09:27:31;101395.63;;;25.16;53.59
11114;BME280;5610;52.154;9.198;2022-09-01T09:30:20;101385.94;;;25.38;53.85
11114;BME280;5610;52.154;9.198;2022-09-01T09:33:07;101399.16;;;25.57;52.08
11114;BME280;5610;52.154;9.198;2022-09-01T09:36:15;101398.16;;;25.50;51.64
11114;BME280;5610;52.154;9.198;2022-09-01T09:39:07;101401.00;;;25.89;50.67
11114;BME280;5610;52.154;9.198;2022-09-01T09:42:06;101395.41;;;26.14;50.00
11114;BME280;5610;52.154;9.198;2022-09-01T09:44:52;101387.81;;;26.40;49.84
11114;BME280;5610;52.154;9.198;2022-09-01T09:47:41;101385.53;;;26.75;48.89
11114;BME280;5610;52.154;9.198;2022-09-01T09:50:30;101387.28;;;26.91;47.78
11114;BME280;5610;52.154;9.198;2022-09-01T09:53:25;101383.38;;;27.31;48.00
11114;BME280;5610;52.154;9.198;2022-09-01T09:56:16;101368.00;;;27.59;45.79
11114;BME280;5610;52.154;9.198;2022-09-01T09:59:15;101374.72;;;28.01;45.33
11114;BME280;5610;52.154;9.198;2022-09-01T10:02:16;101368.31;;;28.45;44.21
11114;BME280;5610;52.154;9.198;2022-09-01T10:05:23;101377.03;;;28.70;43.13
11114;BME280;5610;52.154;9.198;2022-09-01T10:08:13;101369.88;;;28.54;43.59
11114;BME280;5610;52.154;9.198;2022-09-01T10:10:59;101363.84;;;29.30;41.85
11114;BME280;5610;52.154;9.198;2022-09-01T10:13:44;101369.72;;;29.83;40.93
11114;BME280;5610;52.154;9.198;2022-09-01T10:16:31;101351.16;;;30.39;39.52
11114;BME280;5610;52.154;9.198;2022-09-01T10:19:21;101350.56;;;30.63;39.39
11114;BME280;5610;52.154;9.198;2022-09-01T10:22:07;101356.97;;;30.84;38.95
11114;BME280;5610;52.154;9.198;2022-09-01T10:24:55;101343.16;;;31.50;37.46
11114;BME280;5610;52.154;9.198;2022-09-01T10:27:43;101337.53;;;31.96;36.23
11114;BME280;5610;52.154;9.198;2022-09-01T10:30:31;101341.88;;;32.24;37.13
11114;BME280;5610;52.154;9.198;2022-09-01T10:33:18;101342.59;;;32.76;36.09
11114;BME280;5610;52.154;9.198;2022-09-01T10:36:05;101346.97;;;33.40;34.46
11114;BME280;5610;52.154;9.198;2022-09-01T10:38:51;101329.84;;;34.53;33.00
11114;BME280;5610;52.154;9.198;2022-09-01T10:41:47;101334.28;;;33.94;32.39
11114;BME280;5610;52.154;9.198;2022-09-01T10:44:35;101333.19;;;34.44;32.28
11114;BME280;5610;52.154;9.198;2022-09-01T10:47:24;101319.53;;;38.08;28.67
11114;BME280;5610;52.154;9.198;2022-09-01T10:50:25;101318.97;;;40.95;25.99
11114;BME280;5610;52.154;9.198;2022-09-01T10:53:37;101322.88;;;40.99;25.57
11114;BME280;5610;52.154;9.198;2022-09-01T10:56:25;101314.13;;;39.57;25.56
11114;BME280;5610;52.154;9.198;2022-09-01T10:59:25;101315.16;;;39.98;26.04
11114;BME280;5610;52.154;9.198;2022-09-01T11:02:13;101317.00;;;42.45;23.55
11114;BME280;5610;52.154;9.198;2022-09-01T11:05:15;101320.38;;;44.06;22.92
11114;BME280;5610;52.154;9.198;2022-09-01T11:08:21;101316.41;;;45.84;20.68
11114;BME280;5610;52.154;9.198;2022-09-01T11:11:16;101315.34;;;47.59;19.48
11114;BME280;5610;52.154;9.198;2022-09-01T11:14:16;101316.72;;;47.79;19.55
11114;BME280;5610;52.154;9.198;2022-09-01T11:17:16;101306.38;;;48.96;18.77
11114;BME280;5610;52.154;9.198;2022-09-01T11:20:05;101299.53;;;49.06;18.57
11114;BME280;5610;52.154;9.198;2022-09-01T11:22:59;101305.38;;;49.98;17.86
11114;BME280;5610;52.154;9.198;2022-09-01T11:25:46;101300.41;;;50.70;17.35
11114;BME280;5610;52.154;9.198;2022-09-01T11:28:38;101296.56;;;50.53;17.17
11114;BME280;5610;52.154;9.198;2022-09-01T11:31:27;101286.06;;;50.99;17.01
11114;BME280;5610;52.154;9.198;2022-09-01T11:34:17;101283.66;;;49.22;17.70
11114;BME280;5610;52.154;9.198;2022-09-01T11:37:11;101283.66;;;45.61;19.00
11114;BME280;5610;52.154;9.198;2022-09-01T11:40:00;101281.47;;;46.21;19.03
11114;BME280;5610;52.154;9.198;2022-09-01T11:42:47;101267.16;;;46.85;19.01
11114;BME280;5610;52.154;9.198;2022-09-01T11:45:40;101276.69;;;48.03;18.84
11114;BME280;5610;52.154;9.198;2022-09-01T11:48:29;101273.06;;;49.48;17.37
11114;BME280;5610;52.154;9.198;2022-09-01T11:51:16;101274.75;;;50.33;16.95
11114;BME280;5610;52.154;9.198;2022-09-01T11:54:01;101271.56;;;45.74;19.11
11114;BME280;5610;52.154;9.198;2022-09-01T11:56:48;101264.25;;;42.13;20.10
11114;BME280;5610;52.154;9.198;2022-09-01T11:59:35;101263.63;;;41.77;21.48
11114;BME280;5610;52.154;9.198;2022-09-01T12:02:23;101265.94;;;45.19;19.28
11114;BME280;5610;52.154;9.198;2022-09-01T12:05:25;101261.88;;;44.46;19.11
11114;BME280;5610;52.154;9.198;2022-09-01T12:08:14;101265.81;;;45.24;18.79
11114;BME280;5610;52.154;9.198;2022-09-01T12:11:04;101257.25;;;46.65;18.44
11114;BME280;5610;52.154;9.198;2022-09-01T12:13:58;101264.69;;;45.25;18.63
11114;BME280;5610;52.154;9.198;2022-09-01T12:16:55;101261.50;;;44.20;20.05
11114;BME280;5610;52.154;9.198;2022-09-01T12:19:41;101249.44;;;46.62;18.75
11114;BME280;5610;52.154;9.198;2022-09-01T12:22:26;101255.91;;;49.66;16.39
11114;BME280;5610;52.154;9.198;2022-09-01T12:25:20;101256.75;;;51.20;15.70
11114;BME280;5610;52.154;9.198;2022-09-01T12:28:06;101264.13;;;50.75;15.66
11114;BME280;5610;52.154;9.198;2022-09-01T12:30:54;101247.81;;;49.85;16.42
11114;BME280;5610;52.154;9.198;2022-09-01T12:33:41;101248.34;;;49.19;16.34
11114;BME280;5610;52.154;9.198;2022-09-01T12:36:29;101245.03;;;44.79;18.61
11114;BME280;5610;52.154;9.198;2022-09-01T12:39:19;101242.09;;;42.56;19.55
11114;BME280;5610;52.154;9.198;2022-09-01T12:42:10;101238.66;;;39.21;21.91
11114;BME280;5610;52.154;9.198;2022-09-01T12:44:57;101237.72;;;36.82;23.77
11114;BME280;5610;52.154;9.198;2022-09-01T12:47:46;101238.41;;;36.90;24.43
11114;BME280;5610;52.154;9.198;2022-09-01T12:50:43;101242.88;;;35.31;25.61
11114;BME280;5610;52.154;9.198;2022-09-01T12:53:32;101243.03;;;33.76;26.91
11114;BME280;5610;52.154;9.198;2022-09-01T12:56:22;101241.13;;;32.78;27.55
11114;BME280;5610;52.154;9.198;2022-09-01T12:59:13;101240.44;;;32.26;27.71
11114;BME280;5610;52.154;9.198;2022-09-01T13:02:26;101230.69;;;38.97;22.43
11114;BME280;5610;52.154;9.198;2022-09-01T13:05:23;101226.59;;;44.73;18.80
11114;BME280;5610;52.154;9.198;2022-09-01T13:08:11;101228.31;;;48.13;17.70
11114;BME280;5610;52.154;9.198;2022-09-01T13:11:00;101228.66;;;50.36;15.77
11114;BME280;5610;52.154;9.198;2022-09-01T13:13:45;101223.75;;;51.92;15.04
11114;BME280;5610;52.154;9.198;2022-09-01T13:16:32;101219.53;;;52.74;15.01
11114;BME280;5610;52.154;9.198;2022-09-01T13:19:18;101225.81;;;53.81;14.24
11114;BME280;5610;52.154;9.198;2022-09-01T13:22:03;101221.03;;;54.47;13.75
11114;BME280;5610;52.154;9.198;2022-09-01T13:24:48;101219.47;;;54.49;13.88
11114;BME280;5610;52.154;9.198;2022-09-01T13:27:34;101211.97;;;54.64;14.00
11114;BME280;5610;52.154;9.198;2022-09-01T13:30:21;101203.97;;;55.23;13.64
11114;BME280;5610;52.154;9.198;2022-09-01T13:33:08;101195.25;;;53.62;14.03
11114;BME280;5610;52.154;9.198;2022-09-01T13:35:55;101183.81;;;48.02;16.45
11114;BME280;5610;52.154;9.198;2022-09-01T13:38:40;101183.38;;;47.43;16.92
11114;BME280;5610;52.154;9.198;2022-09-01T13:41:26;101177.78;;;49.65;15.89
11114;BME280;5610;52.154;9.198;2022-09-01T13:44:11;101183.00;;;50.74;15.44
11114;BME280;5610;52.154;9.198;2022-09-01T13:46:57;101182.97;;;50.05;16.09
11114;BME280;5610;52.154;9.198;2022-09-01T13:49:44;101176.13;;;47.85;16.86
11114;BME280;5610;52.154;9.198;2022-09-01T13:52:29;101173.78;;;43.05;19.73
11114;BME280;5610;52.154;9.198;2022-09-01T13:55:18;101164.09;;;39.59;21.54
11114;BME280;5610;52.154;9.198;2022-09-01T13:58:05;101168.16;;;37.11;23.51
11114;BME280;5610;52.154;9.198;2022-09-01T14:00:50;101163.28;;;39.00;22.09
11114;BME280;5610;52.154;9.198;2022-09-01T14:03:36;101167.28;;;43.52;19.51
11114;BME280;5610;52.154;9.198;2022-09-01T14:06:22;101153.13;;;47.17;17.87
11114;BME280;5610;52.154;9.198;2022-09-01T14:09:08;101158.00;;;44.08;19.20
11114;BME280;5610;52.154;9.198;2022-09-01T14:11:54;101154.38;;;39.76;21.45
11114;BME280;5610;52.154;9.198;2022-09-01T14:14:39;101162.00;;;37.09;23.34
11114;BME280;5610;52.154;9.198;2022-09-01T14:17:25;101159.81;;;34.73;26.45
11114;BME280;5610;52.154;9.198;2022-09-01T14:20:13;101148.13;;;33.33;27.91
11114;BME280;5610;52.154;9.198;2022-09-01T14:23:00;101152.19;;;32.76;28.26
11114;BME280;5610;52.154;9.198;2022-09-01T14:25:48;101156.56;;;32.40;28.05
11114;BME280;5610;52.154;9.198;2022-09-01T14:28:34;101147.06;;;37.59;24.20
11114;BME280;5610;52.154;9.198;2022-09-01T14:31:19;101144.97;;;42.12;20.92
11114;BME280;5610;52.154;9.198;2022-09-01T14:34:04;101147.88;;;45.41;18.66
11114;BME280;5610;52.154;9.198;2022-09-01T14:36:50;101139.91;;;47.52;17.31
11114;BME280;5610;52.154;9.198;2022-09-01T14:39:38;101142.19;;;48.37;16.63
11114;BME280;5610;52.154;9.198;2022-09-01T14:42:24;101154.44;;;48.41;16.50
11114;BME280;5610;52.154;9.198;2022-09-01T14:45:12;101146.50;;;48.26;16.44
11114;BME280;5610;52.154;9.198;2022-09-01T14:48:00;101140.22;;;47.33;17.37
11114;BME280;5610;52.154;9.198;2022-09-01T14:50:47;101121.19;;;43.35;19.24
11114;BME280;5610;52.154;9.198;2022-09-01T14:53:34;101125.03;;;41.85;20.35